7VA3 weather

Hopewell Heliport
Hopewell, Virginia, United States

Public forecast

Using degrees Fahrenheit for public forecast. Weather courtesy of forecast.io.

METAR (pilot weather report)

Closest report is Dinwiddie County Airport, 12.9 nm (23.9 km) WSW. Retrieved 2019/03/21 03:35 UTC (0 seconds ago):

KPTB 210335Z AUTO 02003KT 3SM -RA BKN006 OVC013 07/06 A3018 RMK AO2 T00670057

TAF (pilot weather forecast)

Forecast is more than 12 hours old.

Closest forecast is Richmond International Airport, 13.3 nm (24.6 km) N. Retrieved 2019/03/20 00:36 UTC (1 day ago):

TAF KRIC 202334Z 2100/2124 08006KT 6SM -RA OVC040 FM210200 06005KT 4SM -RA BR OVC015 FM210500 06005KT 3SM -RA BR OVC007 FM211200 10009KT 4SM -RA BR OVC007 FM211800 29005KT 6SM -RA OVC015